Time;durP1;ratioP1;P1;durP2;ratioP2;P2;SDS_P1;SDS_P2;PMS_P1;PMS_P2;Temp;Humidity;BMP_temperature;BMP_pressure;BME280_temperature;BME280_humidity;BME280_pressure;Samples;Min_cycle;Max_cycle;Signal;HPM_P1;HPM_P2
2021/07/27 00:02:54;;;;;;;;;12.80;12.80;;;;;25.83;46.90;101489.50;5092556;28;8881;-75
2021/07/27 00:05:52;;;;;;;;;12.20;11.40;;;;;25.64;46.77;101485.19;5091951;28;8946;-75
2021/07/27 00:08:47;;;;;;;;;12.20;10.40;;;;;25.57;45.12;101488.06;5079414;28;8828;-75
2021/07/27 00:11:43;;;;;;;;;10.40;10.40;;;;;25.73;46.11;101485.53;5103012;28;8949;-74
2021/07/27 00:14:38;;;;;;;;;11.80;11.80;;;;;25.82;45.35;101490.72;5112717;28;8959;-75
2021/07/27 00:17:34;;;;;;;;;9.20;9.20;;;;;25.64;45.19;101481.53;5112580;28;8847;-75
2021/07/27 00:20:29;;;;;;;;;11.80;11.80;;;;;25.61;46.63;101477.53;5101203;28;8922;-74
2021/07/27 00:23:25;;;;;;;;;8.40;8.40;;;;;25.54;45.34;101483.22;5093073;28;8848;-75
2021/07/27 00:26:24;;;;;;;;;8.80;8.80;;;;;25.64;45.66;101487.19;5091945;28;8906;-74
2021/07/27 00:29:21;;;;;;;;;11.20;11.20;;;;;25.63;45.47;101488.44;5092112;28;8847;-74
2021/07/27 00:32:17;;;;;;;;;8.40;8.40;;;;;25.59;46.09;101484.81;5092856;28;8833;-75
2021/07/27 00:35:13;;;;;;;;;11.20;11.20;;;;;25.56;47.76;101491.31;5096261;28;8833;-75
2021/07/27 00:38:09;;;;;;;;;9.20;9.20;;;;;25.55;46.00;101490.50;5096737;28;8922;-76
2021/07/27 00:41:04;;;;;;;;;9.60;9.60;;;;;25.39;47.19;101490.22;5102065;28;8822;-76
2021/07/27 00:44:00;;;;;;;;;9.40;9.40;;;;;25.51;47.68;101496.19;5116408;28;8821;-76
2021/07/27 00:46:55;;;;;;;;;11.40;9.80;;;;;25.25;45.89;101493.91;5116133;28;8882;-75
2021/07/27 00:49:52;;;;;;;;;11.00;11.00;;;;;25.30;47.30;101503.97;5116054;28;8818;-76
2021/07/27 00:52:47;;;;;;;;;27.50;26.75;;;;;25.18;49.05;101496.78;5114430;28;8841;-76
2021/07/27 00:55:43;;;;;;;;;31.50;30.00;;;;;25.18;49.57;101497.59;5116924;28;8855;-75
2021/07/27 00:58:39;;;;;;;;;33.50;30.50;;;;;24.87;49.52;101498.50;5089813;28;8835;-75
2021/07/27 01:01:35;;;;;;;;;37.00;33.50;;;;;24.86;50.52;101499.72;5095955;28;8828;-75
2021/07/27 01:04:31;;;;;;;;;18.00;15.00;;;;;23.71;53.91;101507.50;5082045;28;8831;-76
2021/07/27 01:07:26;;;;;;;;;47.00;39.00;;;;;24.19;53.31;101511.94;5081993;28;8901;-75
2021/07/27 01:10:22;;;;;;;;;27.50;27.50;;;;;24.04;54.53;101511.16;5095388;28;8831;-76
2021/07/27 01:13:18;;;;;;;;;51.50;41.75;;;;;24.02;54.32;101514.38;5095298;28;8828;-75
2021/07/27 01:16:13;;;;;;;;;48.50;40.00;;;;;23.14;55.13;101507.31;5095158;28;8839;-76
2021/07/27 01:44:13;;;;;;;;;53.00;43.75;;;;;24.10;55.67;101515.19;5115200;28;8821;-75
2021/07/27 01:47:09;;;;;;;;;50.75;43.00;;;;;24.26;56.18;101518.41;5115016;28;8872;-75
2021/07/27 01:50:05;;;;;;;;;44.75;38.00;;;;;24.19;56.00;101515.59;5115099;28;8818;-75
2021/07/27 01:53:05;;;;;;;;;41.25;35.25;;;;;24.16;56.59;101521.25;5111149;28;8919;-75
2021/07/27 01:56:00;;;;;;;;;48.00;40.75;;;;;24.48;56.32;101515.59;5115102;28;8841;-76
2021/07/27 01:58:57;;;;;;;;;58.50;46.75;;;;;24.12;56.04;101519.22;5114904;28;8852;-75
2021/07/27 02:01:56;;;;;;;;;58.50;46.00;;;;;24.32;56.17;101518.81;5114912;28;8827;-75
2021/07/27 02:04:52;;;;;;;;;59.67;48.00;;;;;24.39;55.37;101521.66;5114967;28;8851;-75
2021/07/27 02:07:55;;;;;;;;;59.25;45.25;;;;;24.03;58.07;101507.50;5115007;28;8986;-75
2021/07/27 02:10:56;;;;;;;;;53.75;44.75;;;;;24.39;56.54;101518.84;5114411;28;8939;-75
2021/07/27 02:13:54;;;;;;;;;47.00;39.25;;;;;24.49;56.67;101526.47;5114564;28;8857;-75
2021/07/27 02:16:50;;;;;;;;;62.25;49.00;;;;;24.21;56.85;101526.47;5114304;28;8864;-76
2021/07/27 02:19:45;;;;;;;;;51.75;43.00;;;;;24.28;57.37;101523.66;5114222;28;8921;-76
2021/07/27 02:22:41;;;;;;;;;57.25;45.75;;;;;24.28;57.72;101521.63;5114188;28;8831;-76
2021/07/27 02:25:37;;;;;;;;;56.33;47.00;;;;;24.23;56.47;101521.22;5114037;28;8847;-76
2021/07/27 02:28:33;;;;;;;;;56.33;47.33;;;;;24.14;57.87;101522.44;5114465;28;8930;-76
2021/07/27 02:31:34;;;;;;;;;56.00;45.00;;;;;23.90;57.87;101519.63;5114356;28;9011;-75
2021/07/27 02:34:32;;;;;;;;;65.00;50.00;;;;;23.79;57.78;101523.25;5100581;28;9270;-75
2021/07/27 02:37:31;;;;;;;;;23.00;19.25;;;;;23.82;58.79;101521.63;5114351;28;9094;-76
2021/07/27 02:40:27;;;;;;;;;58.67;48.00;;;;;23.89;59.12;101526.47;5115160;28;8829;-75
2021/07/27 02:43:23;;;;;;;;;58.67;48.33;;;;;24.08;58.64;101517.63;5114026;28;8909;-75
2021/07/27 02:46:19;;;;;;;;;62.00;49.33;;;;;24.43;57.69;101522.44;5113746;28;8968;-76
2021/07/27 02:49:15;;;;;;;;;55.25;45.75;;;;;24.20;57.66;101531.31;5113872;28;9079;-75
2021/07/27 02:52:10;;;;;;;;;54.50;44.75;;;;;24.06;57.63;101537.78;5113662;28;8850;-76
2021/07/27 02:55:07;;;;;;;;;56.75;46.00;;;;;23.91;59.15;101536.16;5114014;28;8810;-75
2021/07/27 02:58:03;;;;;;;;;54.25;44.50;;;;;24.28;58.66;101530.09;5113418;28;8842;-76
2021/07/27 03:01:02;;;;;;;;;55.00;45.50;;;;;24.19;58.39;101529.72;5113998;28;8900;-75
2021/07/27 03:03:58;;;;;;;;;55.00;43.50;;;;;24.06;58.35;101520.81;5099709;28;8982;-75
2021/07/27 03:06:54;;;;;;;;;49.00;41.50;;;;;24.35;57.86;101535.78;5113412;28;8834;-75
2021/07/27 03:13:03;;;;;;;;;50.25;43.00;;;;;24.51;57.96;101535.38;5113333;28;8819;-75
2021/07/27 03:15:59;;;;;;;;;39.00;34.75;;;;;24.43;57.07;101530.94;5099500;28;8861;-75
2021/07/27 03:18:56;;;;;;;;;39.50;33.50;;;;;24.34;56.93;101536.19;5113343;28;8802;-75
2021/07/27 03:21:51;;;;;;;;;35.75;29.75;;;;;24.32;57.53;101544.25;5079488;28;8828;-75
2021/07/27 03:24:47;;;;;;;;;44.00;38.25;;;;;24.39;58.45;101545.09;5093065;28;8844;-76
2021/07/27 03:27:44;;;;;;;;;46.75;39.25;;;;;24.36;58.38;101543.06;5099858;28;8846;-75
2021/07/27 03:30:39;;;;;;;;;24.00;24.00;;;;;24.33;55.96;101543.06;5113413;28;8819;-76
2021/07/27 03:33:35;;;;;;;;;36.00;33.00;;;;;24.45;57.70;101548.28;5113455;28;8838;-76
2021/07/27 03:36:31;;;;;;;;;35.25;32.00;;;;;23.68;59.38;101542.19;5100009;28;8818;-76
2021/07/27 03:39:26;;;;;;;;;34.00;31.25;;;;;23.70;59.51;101544.63;5113062;28;8823;-76
2021/07/27 03:42:24;;;;;;;;;31.25;30.25;;;;;23.62;59.35;101546.63;5112874;28;8814;-75
2021/07/27 03:45:20;;;;;;;;;27.50;26.75;;;;;23.94;58.98;101541.00;5113045;28;8918;-75
2021/07/27 03:48:15;;;;;;;;;31.00;30.00;;;;;24.02;58.84;101541.84;5113035;28;8834;-75
2021/07/27 03:51:13;;;;;;;;;18.25;18.25;;;;;24.11;57.06;101539.41;5091633;28;8831;-75
2021/07/27 03:54:08;;;;;;;;;15.75;15.75;;;;;24.13;55.04;101543.44;5113548;28;8983;-75
2021/07/27 03:57:04;;;;;;;;;21.75;21.75;;;;;24.24;53.94;101543.44;5113062;28;8825;-74
2021/07/27 04:00:00;;;;;;;;;24.75;24.00;;;;;24.25;55.72;101552.72;5112873;28;8841;-75
2021/07/27 04:02:55;;;;;;;;;16.50;16.50;;;;;24.47;56.43;101545.88;5112726;28;8823;-75
2021/07/27 04:05:52;;;;;;;;;13.80;13.80;;;;;24.35;53.92;101544.25;5106958;28;8849;-75
2021/07/27 04:08:48;;;;;;;;;13.20;13.20;;;;;23.91;52.40;101543.81;5085563;28;8975;-75
2021/07/27 04:11:43;;;;;;;;;11.80;11.80;;;;;24.38;53.49;101540.66;5099352;28;8839;-76
2021/07/27 04:14:39;;;;;;;;;10.60;10.60;;;;;24.48;53.82;101541.84;5112634;28;8827;-75
2021/07/27 04:17:35;;;;;;;;;15.20;15.20;;;;;24.74;53.40;101543.41;5092217;28;8825;-75
2021/07/27 04:20:30;;;;;;;;;14.00;14.00;;;;;24.86;51.60;101539.34;5103486;28;9772;-75
2021/07/27 04:23:26;;;;;;;;;14.60;14.60;;;;;24.82;51.13;101544.19;5112496;28;8831;-75
2021/07/27 04:26:23;;;;;;;;;16.00;16.00;;;;;24.84;50.95;101545.38;5113350;28;8835;-75
2021/07/27 04:29:23;;;;;;;;;14.60;14.60;;;;;25.04;52.14;101550.63;5099270;28;8969;-75
2021/07/27 04:32:18;;;;;;;;;14.80;14.80;;;;;24.98;49.58;101558.69;5112556;28;8827;-75
2021/07/27 04:35:14;;;;;;;;;12.60;12.60;;;;;24.94;49.93;101564.38;5112689;28;8819;-75
2021/07/27 04:38:09;;;;;;;;;14.00;14.00;;;;;25.06;51.68;101563.13;5112078;28;8807;-76
2021/07/27 04:41:08;;;;;;;;;12.80;12.80;;;;;25.16;51.33;101558.66;5112463;28;8819;-76
2021/07/27 04:44:04;;;;;;;;;13.80;13.80;;;;;25.34;51.38;101562.22;5098456;28;8907;-75
2021/07/27 04:46:59;;;;;;;;;13.60;13.60;;;;;25.63;52.02;101559.25;5112385;28;9011;-76
2021/07/27 04:49:55;;;;;;;;;10.80;10.80;;;;;25.76;50.12;101560.38;5112604;28;8836;-76
2021/07/27 04:52:57;;;;;;;;;14.20;14.20;;;;;25.84;50.18;101556.31;5112131;28;8834;-75
2021/07/27 04:55:58;;;;;;;;;14.20;14.20;;;;;25.71;48.70;101560.81;5111877;28;8842;-76
2021/07/27 04:58:54;;;;;;;;;12.60;12.60;;;;;25.46;49.44;101552.47;5098647;28;8822;-76
2021/07/27 05:01:49;;;;;;;;;16.40;16.40;;;;;25.67;49.36;101555.16;5111743;28;8811;-75
2021/07/27 05:04:46;;;;;;;;;16.20;16.20;;;;;25.72;48.22;101548.28;5098105;28;8831;-76
2021/07/27 05:07:45;;;;;;;;;14.00;14.00;;;;;25.98;48.55;101555.38;5111846;28;8839;-75
2021/07/27 05:10:42;;;;;;;;;13.40;13.40;;;;;26.07;48.01;101552.91;5111937;28;8896;-76
2021/07/27 05:13:37;;;;;;;;;11.60;11.60;;;;;26.37;48.41;101551.41;5112510;28;8819;-76
2021/07/27 05:16:33;;;;;;;;;14.00;14.00;;;;;26.52;48.27;101553.72;5112024;28;8858;-75
2021/07/27 05:19:28;;;;;;;;;12.60;12.60;;;;;26.66;47.04;101549.13;5112195;28;8853;-78
2021/07/27 05:22:24;;;;;;;;;13.60;13.60;;;;;26.70;47.02;101547.06;5115230;28;8844;-77
2021/07/27 05:25:23;;;;;;;;;13.00;13.00;;;;;26.93;46.43;101543.56;5114022;28;8821;-78
2021/07/27 05:28:18;;;;;;;;;10.20;10.20;;;;;27.00;46.85;101552.81;5118065;28;8839;-77
2021/07/27 05:31:26;;;;;;;;;10.80;10.80;;;;;27.06;45.06;101561.69;5115656;28;8892;-78
2021/07/27 05:34:22;;;;;;;;;19.80;19.80;;;;;27.08;47.10;101548.69;5115478;28;8815;-78
2021/07/27 05:37:17;;;;;;;;;21.20;21.20;;;;;27.42;45.98;101547.84;5092951;28;8911;-78
2021/07/27 05:40:13;;;;;;;;;13.60;13.60;;;;;27.27;43.93;101547.22;5115211;28;8823;-78
2021/07/27 05:43:09;;;;;;;;;18.40;17.60;;;;;27.10;45.05;101548.25;5115291;28;8850;-78
2021/07/27 05:46:04;;;;;;;;;23.20;22.20;;;;;27.32;43.56;101543.13;5112679;28;8853;-78
2021/07/27 05:49:01;;;;;;;;;18.80;18.80;;;;;27.27;44.94;101538.69;5114835;28;8926;-78
2021/07/27 05:51:28;;;;;;;;;19.20;18.40;;;;;27.47;43.95;101540.88;5109554;28;8853;-80
2021/07/27 05:54:24;;;;;;;;;14.80;14.80;;;;;27.63;43.92;101538.22;5115205;28;8910;-77
2021/07/27 05:57:13;;;;;;;;;19.60;17.20;;;;;27.94;42.57;101541.81;5099420;28;8827;-79
2021/07/27 05:59:42;;;;;;;;;15.60;15.20;;;;;28.04;42.87;101546.53;5097554;28;8838;-80
2021/07/27 06:02:38;;;;;;;;;14.20;14.20;;;;;28.08;42.40;101552.97;5113922;28;8823;-78
2021/07/27 06:05:33;;;;;;;;;17.00;16.00;;;;;28.27;42.49;101551.41;5110963;28;8934;-78
2021/07/27 06:08:29;;;;;;;;;14.00;14.00;;;;;28.44;42.05;101547.47;5114000;28;8838;-74
2021/07/27 06:11:24;;;;;;;;;26.40;25.60;;;;;28.65;41.30;101540.59;5102917;28;9691;-77
2021/07/27 06:13:53;;;;;;;;;26.80;26.40;;;;;28.63;41.83;101539.44;5098168;28;8827;-77
2021/07/27 06:16:21;;;;;;;;;31.80;29.60;;;;;28.72;41.29;101548.19;5097786;28;8829;-77
2021/07/27 06:18:49;;;;;;;;;20.00;20.00;;;;;28.76;40.01;101548.94;5097908;28;8902;-76
2021/07/27 06:21:17;;;;;;;;;18.40;18.40;;;;;28.94;41.59;101548.63;5114913;28;8818;-78
2021/07/27 06:24:13;;;;;;;;;21.00;21.00;;;;;28.90;42.46;101550.69;5093520;28;8984;-77
2021/07/27 06:27:08;;;;;;;;;19.20;19.20;;;;;29.10;41.58;101543.00;5079957;28;8952;-76
2021/07/27 06:30:06;;;;;;;;;30.60;29.00;;;;;29.29;40.72;101544.22;5093952;28;8828;-75
2021/07/27 06:33:02;;;;;;;;;46.25;40.00;;;;;29.35;39.97;101551.00;5106347;28;8835;-76
2021/07/27 06:35:58;;;;;;;;;31.00;29.80;;;;;29.34;40.58;101540.84;5081432;28;8971;-74
2021/07/27 06:38:39;;;;;;;;;19.20;19.20;;;;;29.68;39.72;101534.81;5089210;28;8910;-75
2021/07/27 06:41:35;;;;;;;;;15.60;14.40;;;;;29.68;39.99;101531.97;5093789;28;8817;-75
2021/07/27 06:44:31;;;;;;;;;18.60;17.20;;;;;29.96;40.63;101541.88;5094165;28;8903;-75
2021/07/27 06:47:26;;;;;;;;;39.60;27.80;;;;;29.98;39.11;101544.28;5093384;28;8821;-75
2021/07/27 06:49:55;;;;;;;;;13.60;13.40;;;;;30.13;39.23;101534.94;5094671;28;8853;-75
2021/07/27 06:52:22;;;;;;;;;19.00;19.00;;;;;30.26;38.64;101531.38;5094418;28;8843;-75
2021/07/27 06:54:50;;;;;;;;;15.60;14.60;;;;;30.34;38.02;101530.75;5094529;28;8938;-76
2021/07/27 06:57:18;;;;;;;;;20.80;20.80;;;;;30.48;38.10;101532.41;5094256;28;8851;-75
2021/07/27 06:59:46;;;;;;;;;14.40;14.40;;;;;30.60;37.59;101525.19;5098130;28;8840;-75
2021/07/27 07:02:16;;;;;;;;;14.60;14.60;;;;;30.56;38.24;101530.97;5094194;28;8827;-76
2021/07/27 07:04:44;;;;;;;;;14.00;13.40;;;;;30.58;38.33;101531.31;5094106;28;8839;-76
2021/07/27 07:07:11;;;;;;;;;15.00;15.00;;;;;30.84;38.47;101528.63;5094225;28;8840;-76
2021/07/27 07:09:38;;;;;;;;;17.00;17.00;;;;;31.04;38.66;101531.28;5076336;28;8824;-76
2021/07/27 07:12:13;;;;;;;;;16.60;16.60;;;;;30.77;38.61;101523.91;5093981;28;9604;-75
2021/07/27 07:14:40;;;;;;;;;15.20;15.20;;;;;30.59;38.91;101521.50;5093925;28;8882;-76
2021/07/27 07:17:11;;;;;;;;;11.60;11.60;;;;;30.62;38.15;101522.69;5104410;28;8840;-76
2021/07/27 07:19:38;;;;;;;;;13.60;13.60;;;;;30.78;38.16;101524.72;5095729;28;8952;-76
2021/07/27 07:22:06;;;;;;;;;11.80;11.80;;;;;30.95;36.26;101526.25;5108747;28;8922;-76
2021/07/27 07:24:35;;;;;;;;;7.60;7.60;;;;;30.94;36.34;101522.59;5114273;28;8849;-76
2021/07/27 07:27:03;;;;;;;;;8.40;8.40;;;;;31.28;36.53;101521.19;5114163;28;8914;-76
2021/07/27 07:29:31;;;;;;;;;10.80;10.80;;;;;31.47;36.94;101528.78;5114280;28;8829;-76
2021/07/27 07:31:58;;;;;;;;;10.80;10.80;;;;;31.75;36.46;101527.06;5114290;28;8999;-76
2021/07/27 07:34:26;;;;;;;;;12.60;12.60;;;;;31.90;36.41;101530.31;5114457;28;8918;-77
2021/07/27 07:36:54;;;;;;;;;17.00;17.00;;;;;31.73;37.49;101526.72;5096028;28;8945;-76
2021/07/27 07:39:22;;;;;;;;;12.80;12.80;;;;;31.81;37.70;101528.13;5114376;28;8837;-75
2021/07/27 07:41:49;;;;;;;;;14.20;14.20;;;;;31.69;37.07;101520.31;5096005;28;8879;-76
2021/07/27 07:44:17;;;;;;;;;11.40;11.40;;;;;32.07;35.45;101528.09;5114007;28;8825;-76
2021/07/27 07:46:46;;;;;;;;;11.20;11.20;;;;;32.14;35.67;101529.91;5113783;28;8849;-75
2021/07/27 07:49:14;;;;;;;;;17.00;17.00;;;;;32.30;36.59;101530.56;5095806;28;8849;-76
2021/07/27 07:51:48;;;;;;;;;11.60;11.60;;;;;32.32;35.18;101533.78;5113932;28;8857;-75
2021/07/27 07:54:16;;;;;;;;;10.00;10.00;;;;;32.20;35.62;101522.34;5114272;28;8837;-75
2021/07/27 07:56:44;;;;;;;;;13.00;13.00;;;;;32.49;35.25;101527.91;5095916;28;8829;-75
2021/07/27 07:59:13;;;;;;;;;10.20;8.40;;;;;32.42;34.43;101520.34;5114003;28;8829;-76
2021/07/27 08:01:48;;;;;;;;;12.00;11.20;;;;;32.40;34.51;101525.75;5096203;28;8833;-77
2021/07/27 08:04:16;;;;;;;;;11.00;11.00;;;;;32.74;34.38;101529.84;5079050;28;9621;-76
2021/07/27 08:06:44;;;;;;;;;9.40;9.40;;;;;33.05;34.27;101529.94;5095454;28;8918;-75
2021/07/27 08:09:12;;;;;;;;;10.80;10.80;;;;;33.07;33.76;101524.56;5113821;28;8821;-75
2021/07/27 08:11:40;;;;;;;;;11.20;11.20;;;;;32.87;33.39;101527.75;5096100;28;8964;-75
2021/07/27 08:14:08;;;;;;;;;8.20;8.20;;;;;33.22;34.08;101525.63;5096271;28;8837;-76
2021/07/27 08:16:39;;;;;;;;;11.80;11.80;;;;;33.13;33.79;101531.31;5096656;28;8849;-76
2021/07/27 08:19:08;;;;;;;;;11.60;11.60;;;;;33.33;32.78;101531.72;5095761;28;8833;-72
2021/07/27 08:21:35;;;;;;;;;9.40;9.40;;;;;33.33;32.54;101530.91;5111463;28;8845;-73
2021/07/27 08:24:33;;;;;;;;;8.80;8.80;;;;;33.82;32.01;101530.22;5111203;28;8833;-73
2021/07/27 08:27:28;;;;;;;;;9.20;9.20;;;;;33.87;32.66;101533.25;5101293;28;8849;-72
2021/07/27 08:30:25;;;;;;;;;9.60;9.60;;;;;34.16;31.46;101518.53;5112218;28;8917;-72
2021/07/27 08:33:23;;;;;;;;;10.80;10.00;;;;;34.04;32.06;101533.00;5102281;28;8829;-73
2021/07/27 08:36:19;;;;;;;;;8.20;8.20;;;;;34.27;31.48;101530.34;5090294;28;8879;-73
2021/07/27 08:39:15;;;;;;;;;10.20;10.20;;;;;34.03;31.07;101531.41;5090610;28;8836;-73
2021/07/27 08:42:11;;;;;;;;;10.60;9.20;;;;;33.94;31.39;101524.38;5090461;28;8866;-74
2021/07/27 08:45:07;;;;;;;;;8.40;8.40;;;;;34.42;31.43;101526.88;5091399;28;9625;-73
2021/07/27 08:48:04;;;;;;;;;9.00;9.00;;;;;34.27;30.91;101518.06;5088626;28;8964;-73
2021/07/27 08:51:00;;;;;;;;;8.60;8.60;;;;;34.62;30.82;101523.56;5079495;28;9637;-72
2021/07/27 08:53:56;;;;;;;;;9.80;9.80;;;;;34.67;31.38;101517.97;5090298;28;8932;-73
2021/07/27 08:56:53;;;;;;;;;11.20;11.20;;;;;34.89;30.93;101520.66;5082161;28;8830;-73
2021/07/27 08:59:48;;;;;;;;;7.40;7.40;;;;;34.91;31.17;101520.22;5093187;28;8837;-73
2021/07/27 09:02:44;;;;;;;;;9.80;9.80;;;;;35.19;29.40;101515.97;5087726;28;8902;-72
2021/07/27 09:05:40;;;;;;;;;7.80;7.60;;;;;35.06;29.67;101521.94;5088488;28;8840;-73
2021/07/27 09:08:35;;;;;;;;;12.20;12.20;;;;;35.24;29.21;101514.53;5085252;28;8848;-73
2021/07/27 09:11:32;;;;;;;;;9.00;9.00;;;;;34.92;28.55;101513.19;5093617;28;8895;-74
2021/07/27 09:14:31;;;;;;;;;9.00;9.00;;;;;34.91;28.81;101515.25;5092235;28;8817;-74
2021/07/27 09:17:32;;;;;;;;;9.00;9.00;;;;;34.67;29.39;101505.69;5086431;28;8878;-74
2021/07/27 09:20:35;;;;;;;;;8.00;8.00;;;;;34.73;29.93;101510.28;5060260;28;8933;-74
2021/07/27 09:23:33;;;;;;;;;8.60;8.60;;;;;35.28;29.63;101513.09;5083937;28;8918;-74
2021/07/27 09:26:28;;;;;;;;;8.60;7.80;;;;;35.52;30.29;101501.69;5093351;28;8955;-74
2021/07/27 09:29:27;;;;;;;;;8.60;8.60;;;;;35.50;28.21;101501.38;5093857;28;8844;-73
2021/07/27 09:32:23;;;;;;;;;8.80;8.20;;;;;35.06;28.09;101503.91;5065012;28;8921;-73
2021/07/27 09:35:22;;;;;;;;;5.20;5.20;;;;;35.12;27.38;101501.97;5068637;28;8887;-73
2021/07/27 09:38:18;;;;;;;;;7.20;7.20;;;;;34.84;27.92;101502.00;5088464;28;8809;-73
2021/07/27 09:41:27;;;;;;;;;8.00;8.00;;;;;34.91;27.44;101505.84;5080620;28;8835;-73
2021/07/27 09:44:23;;;;;;;;;8.60;8.60;;;;;35.06;28.53;101503.91;5081359;28;8942;-73
2021/07/27 09:47:20;;;;;;;;;5.60;5.60;;;;;34.71;28.54;101500.56;5094647;28;8860;-73
2021/07/27 09:49:52;;;;;;;;;6.80;6.80;;;;;34.89;29.28;101497.69;5095773;28;8930;-71
2021/07/27 09:52:21;;;;;;;;;7.60;7.60;;;;;35.24;28.89;101505.91;5093540;28;8860;-72
2021/07/27 09:54:51;;;;;;;;;5.80;5.80;;;;;35.24;28.44;101509.59;5101726;28;8867;-72
2021/07/27 09:57:18;;;;;;;;;7.00;6.40;;;;;35.27;28.89;101502.84;5111404;28;8841;-73
2021/07/27 10:00:16;;;;;;;;;8.60;8.60;;;;;35.36;29.75;101497.09;5111583;28;8926;-72
2021/07/27 10:03:15;;;;;;;;;6.00;6.00;;;;;35.54;29.46;101504.09;5114713;28;8901;-72
2021/07/27 10:06:12;;;;;;;;;5.60;5.60;;;;;35.67;27.43;101501.00;5113355;28;8951;-73
2021/07/27 10:09:07;;;;;;;;;6.60;6.20;;;;;35.87;27.31;101501.19;5114647;28;8905;-72
2021/07/27 10:12:08;;;;;;;;;6.40;6.40;;;;;36.06;25.37;101504.81;5111606;28;9652;-72
2021/07/27 10:15:16;;;;;;;;;7.40;7.40;;;;;35.80;26.13;101492.91;5114190;28;8833;-72
2021/07/27 10:18:13;;;;;;;;;5.80;5.80;;;;;36.22;26.89;101497.81;5109726;28;8833;-72
2021/07/27 10:21:17;;;;;;;;;10.00;10.00;;;;;36.25;27.13;101488.19;5080581;28;8820;-73
2021/07/27 10:24:17;;;;;;;;;7.80;7.80;;;;;36.64;26.52;101491.88;5109096;28;8898;-72
2021/07/27 10:27:28;;;;;;;;;9.40;9.40;;;;;37.01;26.74;101498.91;5114183;28;8841;-73
2021/07/27 10:30:38;;;;;;;;;7.00;7.00;;;;;36.67;26.69;101485.13;5114233;28;9649;-73
2021/07/27 10:33:36;;;;;;;;;10.00;9.40;;;;;36.94;27.15;101490.63;5092858;28;8823;-73
2021/07/27 10:36:43;;;;;;;;;7.60;7.60;;;;;36.79;26.59;101484.03;5109283;28;8901;-73
2021/07/27 10:39:53;;;;;;;;;7.00;7.00;;;;;36.81;26.44;101474.91;5072801;28;8843;-72
2021/07/27 10:42:49;;;;;;;;;7.20;7.20;;;;;36.72;27.34;101479.47;5093611;28;8862;-72
2021/07/27 10:45:45;;;;;;;;;7.00;7.00;;;;;37.14;25.78;101481.31;5093511;28;8900;-73
2021/07/27 10:48:41;;;;;;;;;6.00;6.00;;;;;36.95;25.41;101474.13;5105843;28;8845;-72
2021/07/27 10:51:37;;;;;;;;;7.60;7.60;;;;;37.53;25.08;101478.28;5085990;28;8819;-71
2021/07/27 10:54:33;;;;;;;;;8.00;8.00;;;;;37.51;24.65;101470.13;5093377;28;8864;-73
2021/07/27 10:57:42;;;;;;;;;6.60;6.60;;;;;37.20;25.33;101470.66;5093139;28;8847;-73
2021/07/27 11:00:38;;;;;;;;;5.40;5.40;;;;;36.51;26.67;101463.34;5093380;28;8870;-72
2021/07/27 11:03:34;;;;;;;;;7.60;7.60;;;;;36.70;25.53;101450.34;5086849;28;8821;-72
2021/07/27 11:06:30;;;;;;;;;7.60;7.60;;;;;36.84;26.83;101453.75;5113448;28;9588;-73
2021/07/27 11:09:26;;;;;;;;;7.00;7.00;;;;;36.75;26.15;101451.75;5107317;28;8837;-72
2021/07/27 11:12:42;;;;;;;;;6.00;6.00;;;;;36.86;25.94;101456.94;5113152;28;8867;-73
2021/07/27 11:15:39;;;;;;;;;9.20;8.60;;;;;36.73;24.67;101449.38;5113304;28;8813;-72
2021/07/27 11:18:35;;;;;;;;;5.80;5.80;;;;;37.04;26.52;101456.75;5099190;28;9575;-73
2021/07/27 11:21:30;;;;;;;;;8.40;7.80;;;;;37.15;24.82;101451.16;5108715;28;8831;-71
2021/07/27 11:24:28;;;;;;;;;6.00;6.00;;;;;36.33;25.79;101443.31;5113324;28;8835;-74
2021/07/27 11:27:31;;;;;;;;;6.20;6.20;;;;;36.95;25.90;101460.53;5099850;28;8847;-72
2021/07/27 11:30:35;;;;;;;;;5.80;5.80;;;;;37.19;24.95;101450.94;5113172;28;8853;-72
2021/07/27 11:33:31;;;;;;;;;6.40;6.40;;;;;37.37;25.17;101453.66;5113224;28;9607;-73
2021/07/27 11:36:27;;;;;;;;;4.60;4.60;;;;;37.74;23.76;101453.16;5112843;28;8892;-72
2021/07/27 11:39:22;;;;;;;;;6.00;6.00;;;;;38.24;24.17;101458.84;5096876;28;8860;-73
2021/07/27 11:42:30;;;;;;;;;5.80;5.80;;;;;37.64;22.67;101451.69;5092068;28;8820;-74
2021/07/27 11:45:04;;;;;;;;;7.60;7.60;;;;;37.53;22.89;101438.69;5093335;28;8848;-73
2021/07/27 11:48:00;;;;;;;;;6.00;6.00;;;;;37.84;22.90;101455.41;5100939;28;8961;-73
2021/07/27 11:50:58;;;;;;;;;5.40;5.40;;;;;37.96;23.04;101452.66;5112802;28;8852;-73
2021/07/27 11:53:54;;;;;;;;;6.40;6.40;;;;;37.58;23.34;101447.94;5112020;28;8827;-74
2021/07/27 11:56:50;;;;;;;;;5.00;5.00;;;;;36.57;25.62;101443.28;5112033;28;8845;-74
2021/07/27 11:59:46;;;;;;;;;7.20;7.20;;;;;36.44;25.65;101443.56;5112434;28;8818;-72
2021/07/27 12:02:43;;;;;;;;;5.00;5.00;;;;;36.46;24.87;101446.75;5112728;28;8819;-71
2021/07/27 12:05:39;;;;;;;;;6.00;6.00;;;;;36.36;24.21;101442.34;5112272;28;8877;-73
2021/07/27 12:08:34;;;;;;;;;5.00;5.00;;;;;36.48;25.97;101438.41;5098538;28;8899;-73
2021/07/27 12:11:30;;;;;;;;;5.40;5.40;;;;;36.76;25.00;101444.69;5110461;28;8863;-73
2021/07/27 12:14:25;;;;;;;;;4.60;4.60;;;;;36.81;25.71;101438.25;5101077;28;8807;-71
2021/07/27 12:17:21;;;;;;;;;8.00;8.00;;;;;37.17;25.61;101434.16;5079368;28;9573;-72
2021/07/27 12:20:16;;;;;;;;;11.00;11.00;;;;;37.40;24.90;101435.34;5101526;28;8887;-72
2021/07/27 12:23:14;;;;;;;;;40.80;23.00;;;;;37.95;22.94;101433.75;5098997;28;8815;-74
2021/07/27 12:26:10;;;;;;;;;12.00;12.00;;;;;37.95;23.27;101433.75;5111886;28;8866;-73
2021/07/27 12:29:05;;;;;;;;;7.00;7.00;;;;;38.41;22.84;101428.03;5112346;28;8905;-74
2021/07/27 12:32:01;;;;;;;;;6.80;6.80;;;;;38.76;21.84;101430.81;5117081;28;8847;-73
2021/07/27 12:34:57;;;;;;;;;9.60;9.60;;;;;37.98;23.80;101418.34;5116338;28;8819;-73
2021/07/27 12:37:52;;;;;;;;;9.00;9.00;;;;;38.62;22.30;101420.13;5116180;28;8961;-73
2021/07/27 12:40:48;;;;;;;;;11.40;11.40;;;;;38.47;22.35;101422.31;5116282;28;8818;-75
2021/07/27 12:43:45;;;;;;;;;14.40;14.40;;;;;38.36;23.04;101412.25;5115937;28;8834;-72
2021/07/27 12:46:40;;;;;;;;;13.00;13.00;;;;;37.54;23.50;101420.06;5111682;28;8839;-73
2021/07/27 12:49:36;;;;;;;;;12.80;12.80;;;;;37.05;22.58;101423.75;5116370;28;8833;-73
2021/07/27 12:52:32;;;;;;;;;11.00;11.00;;;;;36.54;24.56;101424.13;5110650;28;8837;-73
2021/07/27 12:55:27;;;;;;;;;8.60;8.60;;;;;36.41;23.77;101418.63;5115912;28;8833;-72
2021/07/27 12:58:23;;;;;;;;;11.00;11.00;;;;;35.54;25.51;101415.72;5116874;28;8928;-73
2021/07/27 13:01:18;;;;;;;;;11.20;11.20;;;;;35.36;26.02;101402.22;5116085;28;8915;-72
2021/07/27 13:04:14;;;;;;;;;9.20;9.20;;;;;35.32;25.88;101409.41;5113259;28;8830;-75
2021/07/27 13:06:41;;;;;;;;;10.20;10.20;;;;;35.81;25.15;101411.06;5105433;28;9604;-73
2021/07/27 13:09:09;;;;;;;;;8.60;8.60;;;;;36.47;24.04;101414.56;5096835;28;8942;-73
2021/07/27 13:11:37;;;;;;;;;10.00;10.00;;;;;37.15;23.20;101415.78;5079319;28;8847;-74
2021/07/27 13:14:35;;;;;;;;;9.80;9.80;;;;;37.58;23.18;101414.09;5095493;28;8958;-73
2021/07/27 13:17:32;;;;;;;;;6.60;6.60;;;;;37.80;22.36;101414.44;5095285;28;8838;-74
2021/07/27 13:20:28;;;;;;;;;6.20;6.00;;;;;37.92;22.55;101406.72;5095434;28;8870;-74
2021/07/27 13:23:24;;;;;;;;;6.80;6.80;;;;;37.77;24.19;101408.84;5095443;28;8900;-73
2021/07/27 13:26:19;;;;;;;;;11.40;10.60;;;;;37.59;24.02;101397.59;5094885;28;8858;-73
2021/07/27 13:29:15;;;;;;;;;7.80;7.80;;;;;37.86;24.16;101385.63;5095236;28;8937;-75
2021/07/27 13:32:10;;;;;;;;;6.60;6.60;;;;;37.87;23.44;101397.97;5095118;28;8924;-74
2021/07/27 13:35:07;;;;;;;;;7.00;7.00;;;;;38.19;22.42;101388.16;5094494;28;8827;-74
2021/07/27 13:38:03;;;;;;;;;5.60;5.60;;;;;38.17;22.85;101384.16;5098626;28;8843;-74
2021/07/27 13:40:58;;;;;;;;;10.00;10.00;;;;;38.23;22.10;101385.81;5092329;28;8827;-74
2021/07/27 13:43:54;;;;;;;;;11.00;11.00;;;;;38.73;21.75;101382.69;5108694;28;8843;-74
2021/07/27 13:46:49;;;;;;;;;9.20;9.20;;;;;38.70;22.00;101377.91;5094972;28;8847;-75